createdAt,value
2023-02-17T00:00:42.656Z,77.60
2023-02-17T00:03:10.409Z,77.30
2023-02-17T00:05:39.469Z,77.20
2023-02-17T00:08:07.831Z,77.70
2023-02-17T00:10:35.309Z,78.00
2023-02-17T00:13:03.617Z,78.30
2023-02-17T00:15:31.513Z,78.80
2023-02-17T00:17:59.784Z,77.70
2023-02-17T00:20:29.905Z,77.10
2023-02-17T00:22:57.376Z,76.90
2023-02-17T00:25:24.973Z,77.40
2023-02-17T00:27:52.456Z,77.10
2023-02-17T00:30:20.134Z,77.10
2023-02-17T00:32:47.740Z,76.90
2023-02-17T00:35:15.278Z,77.10
2023-02-17T00:37:45.814Z,78.80
2023-02-17T00:40:14.187Z,77.20
2023-02-17T00:42:43.685Z,77.10
2023-02-17T00:45:11.312Z,76.70
2023-02-17T00:47:38.838Z,76.80
2023-02-17T00:50:07.952Z,77.50
2023-02-17T00:52:36.372Z,76.30
2023-02-17T00:55:13.032Z,76.20
2023-02-17T00:57:41.764Z,76.10
2023-02-17T01:00:11.200Z,76.50
2023-02-17T01:02:39.778Z,76.60
2023-02-17T01:05:08.138Z,75.80
2023-02-17T01:07:37.491Z,76.10
2023-02-17T01:10:08.991Z,75.90
2023-02-17T01:12:36.573Z,76.30
2023-02-17T01:15:04.252Z,76.60
2023-02-17T01:17:31.862Z,76.00
2023-02-17T01:19:59.892Z,76.40
2023-02-17T01:22:27.555Z,75.90
2023-02-17T01:24:55.492Z,75.90
2023-02-17T01:30:15.555Z,76.00
2023-02-17T01:32:43.768Z,75.50
2023-02-17T01:35:14.304Z,75.70
2023-02-17T01:37:45.525Z,75.40
2023-02-17T01:40:14.568Z,75.20
2023-02-17T01:42:42.502Z,75.30
2023-02-17T01:45:19.055Z,75.00
2023-02-17T01:47:49.036Z,74.90
2023-02-17T01:50:18.965Z,75.20
2023-02-17T01:52:46.986Z,74.80
2023-02-17T01:55:19.965Z,74.60
2023-02-17T01:57:50.215Z,74.20
2023-02-17T02:00:20.340Z,74.30
2023-02-17T02:02:49.544Z,74.20
2023-02-17T02:05:19.334Z,74.00
2023-02-17T02:07:48.539Z,74.00
2023-02-17T02:10:18.855Z,73.90
2023-02-17T02:12:46.685Z,73.70
2023-02-17T02:15:24.212Z,73.50
2023-02-17T02:17:51.943Z,73.50
2023-02-17T02:20:38.295Z,73.50
2023-02-17T02:23:09.598Z,73.30
2023-02-17T02:25:56.634Z,73.20
2023-02-17T02:28:36.696Z,73.10
2023-02-17T02:31:10.339Z,72.90
2023-02-17T02:33:38.429Z,72.80
2023-02-17T02:36:12.277Z,72.80
2023-02-17T02:38:41.141Z,72.70
2023-02-17T02:41:27.543Z,72.50
2023-02-17T02:43:57.770Z,72.00
2023-02-17T02:46:26.290Z,72.20
2023-02-17T02:48:57.220Z,72.20
2023-02-17T02:52:01.341Z,72.20
2023-02-17T02:54:36.920Z,71.90
2023-02-17T02:57:23.843Z,72.00
2023-02-17T03:00:06.175Z,71.80
2023-02-17T03:02:47.011Z,71.70
2023-02-17T03:05:16.030Z,71.50
2023-02-17T03:07:43.751Z,71.60
2023-02-17T03:10:11.461Z,71.30
2023-02-17T03:12:39.533Z,71.50
2023-02-17T03:15:14.310Z,71.00
2023-02-17T03:17:42.340Z,71.00
2023-02-17T03:20:11.959Z,71.00
2023-02-17T03:22:41.118Z,71.20
2023-02-17T03:25:11.861Z,71.20
2023-02-17T03:27:39.512Z,71.20
2023-02-17T03:30:08.302Z,71.00
2023-02-17T03:32:37.534Z,70.90
2023-02-17T03:35:06.192Z,70.80
2023-02-17T03:37:34.053Z,70.50
2023-02-17T03:40:01.874Z,70.40
2023-02-17T03:42:29.492Z,70.60
2023-02-17T03:44:57.062Z,70.50
2023-02-17T03:47:25.055Z,70.40
2023-02-17T03:49:55.098Z,70.10
2023-02-17T03:52:23.057Z,70.40
2023-02-17T03:54:53.192Z,69.10
2023-02-17T03:57:21.655Z,70.00
2023-02-17T03:59:49.193Z,70.10
2023-02-17T04:02:17.792Z,70.10
2023-02-17T04:04:46.607Z,69.40
2023-02-17T04:07:14.760Z,69.50
2023-02-17T04:09:43.164Z,69.50
2023-02-17T04:12:10.803Z,68.70
2023-02-17T04:14:38.519Z,69.10
2023-02-17T04:17:06.179Z,68.60
2023-02-17T04:19:33.736Z,69.20
2023-02-17T04:22:02.054Z,68.40
2023-02-17T04:24:29.945Z,68.10
2023-02-17T04:26:57.532Z,68.90
2023-02-17T04:29:26.836Z,68.90
2023-02-17T04:31:54.669Z,68.80
2023-02-17T04:34:22.251Z,68.20
2023-02-17T04:36:50.656Z,68.40
2023-02-17T04:39:19.013Z,69.00
2023-02-17T04:41:46.743Z,68.60
2023-02-17T04:44:14.384Z,68.00
2023-02-17T04:46:42.769Z,67.60
2023-02-17T04:49:11.979Z,68.30
2023-02-17T04:51:39.672Z,67.80
2023-02-17T04:54:12.965Z,68.00
2023-02-17T04:56:40.856Z,68.30
2023-02-17T04:59:10.018Z,68.80
2023-02-17T05:01:38.057Z,68.00
2023-02-17T05:04:05.928Z,68.60
2023-02-17T05:06:33.777Z,68.10
2023-02-17T05:09:01.388Z,68.00
2023-02-17T05:11:31.960Z,68.60
2023-02-17T05:13:59.675Z,68.10
2023-02-17T05:16:27.678Z,68.00
2023-02-17T05:18:57.324Z,68.20
2023-02-17T05:21:24.837Z,68.30
2023-02-17T05:23:52.630Z,67.40
2023-02-17T05:26:20.512Z,68.00
2023-02-17T05:28:48.597Z,68.50
2023-02-17T05:31:22.058Z,68.30
2023-02-17T05:33:49.914Z,67.90
2023-02-17T05:36:18.352Z,67.70
2023-02-17T05:38:50.939Z,66.50
2023-02-17T05:41:19.813Z,66.40
2023-02-17T05:46:39.101Z,66.20
2023-02-17T05:49:06.952Z,65.60
2023-02-17T05:51:34.826Z,65.90
2023-02-17T05:54:02.853Z,66.70
2023-02-17T05:56:30.606Z,65.90
2023-02-17T05:58:58.564Z,67.50
2023-02-17T06:01:28.223Z,67.10
2023-02-17T06:04:01.776Z,66.70
2023-02-17T06:06:29.583Z,65.80
2023-02-17T06:08:57.153Z,66.80
2023-02-17T06:11:26.042Z,65.60
2023-02-17T06:13:54.049Z,66.20
2023-02-17T06:16:22.943Z,64.80
2023-02-17T06:18:50.787Z,66.20
2023-02-17T06:21:18.704Z,65.60
2023-02-17T06:23:47.650Z,64.40
2023-02-17T06:26:15.741Z,65.70
2023-02-17T06:28:43.305Z,65.10
2023-02-17T06:31:11.108Z,64.70
2023-02-17T06:33:39.534Z,63.90
2023-02-17T06:36:10.774Z,66.00
2023-02-17T06:38:39.322Z,64.70
2023-02-17T06:41:06.963Z,65.10
2023-02-17T06:43:34.742Z,65.90
2023-02-17T06:46:02.836Z,63.90
2023-02-17T06:48:33.567Z,65.40
2023-02-17T06:51:01.666Z,65.70
2023-02-17T06:53:30.186Z,65.40
2023-02-17T06:55:59.755Z,63.70
2023-02-17T06:58:27.618Z,65.10
2023-02-17T07:00:55.483Z,60.90
2023-02-17T07:03:23.523Z,61.70
2023-02-17T07:05:51.640Z,63.70
2023-02-17T07:08:19.445Z,63.60
2023-02-17T07:10:47.024Z,64.00
2023-02-17T07:13:21.763Z,64.70
2023-02-17T07:15:49.509Z,63.40
2023-02-17T07:18:17.990Z,64.50
2023-02-17T07:20:45.587Z,63.40
2023-02-17T07:23:22.285Z,64.10
2023-02-17T07:25:50.266Z,63.20
2023-02-17T07:28:22.598Z,63.50
2023-02-17T07:30:50.373Z,63.80
2023-02-17T07:33:18.843Z,61.40
2023-02-17T07:35:46.409Z,63.00
2023-02-17T07:38:14.430Z,63.60
2023-02-17T07:40:42.414Z,63.90
2023-02-17T07:43:10.110Z,63.10
2023-02-17T07:45:37.935Z,63.20
2023-02-17T07:48:06.981Z,63.00
2023-02-17T07:50:35.185Z,60.50
2023-02-17T07:53:16.369Z,63.50
2023-02-17T07:55:52.818Z,63.10
2023-02-17T07:58:21.141Z,61.70
2023-02-17T08:00:50.221Z,62.90
2023-02-17T08:03:18.174Z,62.40
2023-02-17T08:05:48.098Z,59.50
2023-02-17T08:08:36.101Z,62.40
2023-02-17T08:11:22.466Z,62.60
2023-02-17T08:13:50.789Z,60.90
2023-02-17T08:16:19.258Z,61.70
2023-02-17T08:18:49.921Z,61.10
2023-02-17T08:21:18.068Z,60.30
2023-02-17T08:23:46.037Z,59.30
2023-02-17T08:26:14.969Z,61.10
2023-02-17T08:28:43.206Z,62.00
2023-02-17T08:31:19.273Z,62.20
2023-02-17T08:33:48.302Z,60.30
2023-02-17T08:36:18.750Z,61.00
2023-02-17T08:38:52.015Z,62.00
2023-02-17T08:41:22.522Z,61.90
2023-02-17T08:43:50.716Z,62.00
2023-02-17T08:46:19.706Z,62.10
2023-02-17T08:48:47.751Z,61.80
2023-02-17T08:51:16.933Z,61.40
2023-02-17T08:53:45.922Z,61.90
2023-02-17T08:56:13.456Z,61.00
2023-02-17T08:58:42.234Z,61.70
2023-02-17T09:01:09.947Z,60.50
2023-02-17T09:03:38.325Z,61.70
2023-02-17T09:06:07.112Z,61.40
2023-02-17T09:08:35.335Z,61.70
2023-02-17T09:11:03.872Z,61.90
2023-02-17T09:13:32.025Z,61.50
2023-02-17T09:16:01.042Z,62.00
2023-02-17T09:18:29.544Z,60.00
2023-02-17T09:20:58.740Z,62.10
2023-02-17T09:23:26.923Z,60.20
2023-02-17T09:26:06.280Z,58.50
2023-02-17T09:28:34.590Z,59.30
2023-02-17T09:31:12.618Z,60.90
2023-02-17T09:33:41.197Z,60.00
2023-02-17T09:36:10.977Z,61.60
2023-02-17T09:38:39.360Z,59.80
2023-02-17T09:41:15.314Z,60.50
2023-02-17T09:43:43.436Z,61.60
2023-02-17T09:46:14.852Z,59.80
2023-02-17T09:48:45.046Z,60.90
2023-02-17T09:51:15.962Z,59.00
2023-02-17T09:53:57.925Z,60.00
2023-02-17T09:56:31.160Z,60.60
2023-02-17T09:59:04.376Z,60.90
2023-02-17T10:01:44.347Z,61.80
2023-02-17T10:04:18.660Z,62.00
2023-02-17T10:10:01.280Z,60.30
2023-02-17T10:12:37.501Z,60.50
2023-02-17T10:15:08.215Z,60.10
2023-02-17T10:17:58.807Z,60.80
2023-02-17T10:20:34.478Z,61.20
2023-02-17T10:23:07.842Z,61.80
2023-02-17T10:25:54.077Z,61.00
2023-02-17T10:28:27.473Z,62.10
2023-02-17T10:31:06.926Z,62.60
2023-02-17T10:33:34.547Z,62.50
2023-02-17T10:36:26.578Z,61.90
2023-02-17T10:38:56.943Z,62.10
2023-02-17T10:41:29.750Z,62.10
2023-02-17T10:43:57.743Z,61.90
2023-02-17T10:46:29.158Z,61.10
2023-02-17T10:48:58.163Z,61.40
2023-02-17T10:51:27.432Z,61.30
2023-02-17T10:54:03.393Z,62.00
2023-02-17T10:56:40.222Z,62.40
2023-02-17T10:59:22.740Z,62.40
2023-02-17T11:01:50.403Z,62.60
2023-02-17T11:04:18.761Z,62.40
2023-02-17T11:06:50.648Z,62.30
2023-02-17T11:09:32.644Z,62.20
2023-02-17T11:12:02.547Z,62.50
2023-02-17T11:14:31.762Z,62.50
2023-02-17T11:17:15.644Z,62.70
2023-02-17T11:19:45.922Z,62.80
2023-02-17T11:22:33.650Z,62.80
2023-02-17T11:25:03.393Z,62.70
2023-02-17T11:27:34.942Z,62.80
2023-02-17T11:30:06.851Z,63.10
2023-02-17T11:32:34.435Z,63.10
2023-02-17T11:35:05.300Z,63.20
2023-02-17T11:37:34.893Z,63.20
2023-02-17T11:40:17.396Z,63.30
2023-02-17T11:42:44.997Z,63.20
2023-02-17T11:45:22.737Z,63.30
2023-02-17T11:48:00.213Z,63.20
2023-02-17T11:50:41.258Z,63.40
2023-02-17T11:53:21.455Z,63.70
2023-02-17T11:55:56.081Z,63.40
2023-02-17T11:58:46.902Z,63.70
2023-02-17T12:01:14.450Z,63.70
2023-02-17T12:03:54.344Z,63.70
2023-02-17T12:06:24.596Z,63.80
2023-02-17T12:08:52.109Z,63.80
2023-02-17T12:11:28.279Z,63.90
2023-02-17T12:14:14.213Z,64.00
2023-02-17T12:17:02.052Z,63.90
2023-02-17T12:19:29.535Z,63.90
2023-02-17T12:21:57.033Z,63.70
2023-02-17T12:24:33.902Z,63.90
2023-02-17T12:27:20.837Z,64.00
2023-02-17T12:29:48.351Z,64.00
2023-02-17T12:32:42.350Z,64.10
2023-02-17T12:35:16.094Z,64.10
2023-02-17T12:37:51.041Z,64.20
2023-02-17T12:40:36.674Z,64.30
2023-02-17T12:43:24.642Z,64.40
2023-02-17T12:45:54.220Z,64.30
2023-02-17T12:48:21.838Z,64.30
2023-02-17T12:50:55.544Z,64.30
2023-02-17T12:53:31.683Z,64.40
2023-02-17T12:56:02.357Z,64.30
2023-02-17T12:58:31.142Z,64.30
2023-02-17T13:01:09.648Z,64.50
2023-02-17T13:03:38.879Z,64.60
2023-02-17T13:06:15.774Z,64.70
2023-02-17T13:08:46.434Z,64.80
2023-02-17T13:11:14.937Z,64.80
2023-02-17T13:13:42.574Z,64.80
2023-02-17T13:16:12.080Z,64.90
2023-02-17T13:18:44.276Z,65.00
2023-02-17T13:21:22.961Z,65.10
2023-02-17T13:24:01.152Z,65.30
2023-02-17T13:26:31.179Z,65.30
2023-02-17T13:29:09.952Z,65.40
2023-02-17T13:31:49.233Z,65.40
2023-02-17T13:34:32.568Z,65.50
2023-02-17T13:37:03.263Z,65.60
2023-02-17T13:39:32.326Z,65.70
2023-02-17T13:42:01.338Z,65.70
2023-02-17T13:44:39.975Z,65.70
2023-02-17T13:47:13.286Z,65.80
2023-02-17T13:49:41.811Z,65.80
2023-02-17T13:52:17.591Z,65.90
2023-02-17T13:54:55.271Z,65.80
2023-02-17T13:57:30.115Z,65.90
2023-02-17T14:00:10.204Z,65.70
2023-02-17T14:02:39.479Z,65.70
2023-02-17T14:05:16.454Z,65.70
2023-02-17T14:07:47.608Z,65.80
2023-02-17T14:10:23.249Z,65.80
2023-02-17T14:12:51.713Z,66.00
2023-02-17T14:15:20.887Z,66.10
2023-02-17T14:17:48.530Z,66.00
2023-02-17T14:20:26.498Z,65.90
2023-02-17T14:23:09.083Z,66.00
2023-02-17T14:25:39.075Z,66.00
2023-02-17T14:28:20.064Z,65.80
2023-02-17T14:30:47.830Z,65.80
2023-02-17T14:33:18.599Z,65.80
2023-02-17T14:35:55.737Z,65.70
2023-02-17T14:38:25.344Z,65.80
2023-02-17T14:41:02.066Z,65.70
2023-02-17T14:43:29.972Z,65.80
2023-02-17T14:45:57.866Z,66.50
2023-02-17T14:48:27.735Z,65.90
2023-02-17T14:50:57.250Z,65.80
2023-02-17T14:53:29.449Z,65.80
2023-02-17T14:56:05.822Z,65.80
2023-02-17T14:58:34.261Z,65.90
2023-02-17T15:01:02.160Z,65.80
2023-02-17T15:03:30.838Z,65.80
2023-02-17T15:05:58.780Z,65.90
2023-02-17T15:08:32.110Z,65.80
2023-02-17T15:11:00.454Z,65.80
2023-02-17T15:13:28.185Z,65.80
2023-02-17T15:15:55.761Z,65.90
2023-02-17T15:18:23.476Z,65.80
2023-02-17T15:20:51.931Z,65.80
2023-02-17T15:23:20.946Z,65.80
2023-02-17T15:25:48.842Z,65.70
2023-02-17T15:28:17.448Z,65.80
2023-02-17T15:30:52.562Z,65.70
2023-02-17T15:33:20.853Z,65.70
2023-02-17T15:35:51.142Z,65.70
2023-02-17T15:38:18.720Z,65.70
2023-02-17T15:40:48.037Z,65.70
2023-02-17T15:43:16.977Z,65.80
2023-02-17T15:45:45.384Z,65.80
2023-02-17T15:48:18.720Z,65.80
2023-02-17T15:50:46.212Z,65.80
2023-02-17T15:53:13.735Z,65.80
2023-02-17T15:55:41.916Z,65.80
2023-02-17T15:58:19.686Z,66.00
2023-02-17T16:00:48.898Z,66.00
2023-02-17T16:03:16.568Z,66.10
2023-02-17T16:05:44.459Z,66.10
2023-02-17T16:08:12.717Z,66.10
2023-02-17T16:10:42.680Z,66.20
2023-02-17T16:13:12.501Z,66.20
2023-02-17T16:15:40.070Z,66.00
2023-02-17T16:18:09.765Z,66.00
2023-02-17T16:20:37.274Z,65.90
2023-02-17T16:23:04.786Z,65.90
2023-02-17T16:25:32.395Z,66.00
2023-02-17T16:28:00.237Z,66.00
2023-02-17T16:30:35.071Z,66.10
2023-02-17T16:33:03.069Z,66.30
2023-02-17T16:35:32.264Z,66.30
2023-02-17T16:38:06.437Z,66.40
2023-02-17T16:40:35.851Z,66.50
2023-02-17T16:43:04.006Z,66.50
2023-02-17T16:45:33.065Z,66.50
2023-02-17T16:48:01.483Z,66.50
2023-02-17T16:50:35.320Z,66.60
2023-02-17T16:53:04.663Z,66.60
2023-02-17T16:55:34.316Z,66.60
2023-02-17T16:58:02.915Z,66.80
2023-02-17T17:00:31.874Z,67.00
2023-02-17T17:03:00.482Z,67.10
2023-02-17T17:05:28.772Z,67.40
2023-02-17T17:07:56.593Z,67.80
2023-02-17T17:10:26.396Z,68.10
2023-02-17T17:12:54.291Z,68.50
2023-02-17T17:15:21.970Z,69.60
2023-02-17T17:17:49.495Z,69.00
2023-02-17T17:20:18.568Z,68.70
2023-02-17T17:22:46.965Z,69.10
2023-02-17T17:25:15.126Z,69.00
2023-02-17T17:27:42.869Z,69.20
2023-02-17T17:30:16.397Z,68.70
2023-02-17T17:32:46.369Z,68.70
2023-02-17T17:35:14.453Z,68.90
2023-02-17T17:37:41.983Z,68.90
2023-02-17T17:40:19.788Z,69.10
2023-02-17T17:42:47.551Z,68.90
2023-02-17T17:45:15.467Z,69.10
2023-02-17T17:47:44.857Z,69.20
2023-02-17T17:50:17.068Z,68.90
2023-02-17T17:52:45.447Z,68.90
2023-02-17T17:55:13.430Z,68.70
2023-02-17T17:57:41.600Z,68.90
2023-02-17T18:00:10.818Z,69.10
2023-02-17T18:02:38.418Z,69.00
2023-02-17T18:05:06.160Z,68.60
2023-02-17T18:07:35.672Z,69.00
2023-02-17T18:10:05.302Z,68.70
2023-02-17T18:12:32.975Z,68.80
2023-02-17T18:15:02.999Z,69.00
2023-02-17T18:17:32.290Z,68.80
2023-02-17T18:20:00.232Z,69.00
2023-02-17T18:22:27.931Z,68.80
2023-02-17T18:24:55.462Z,69.00
2023-02-17T18:27:23.126Z,69.00
2023-02-17T18:29:50.803Z,69.00
2023-02-17T18:32:18.376Z,68.90
2023-02-17T18:34:46.224Z,68.90
2023-02-17T18:37:14.104Z,69.00
2023-02-17T18:39:42.670Z,69.40
2023-02-17T18:42:11.325Z,69.60
2023-02-17T18:44:38.932Z,69.20
2023-02-17T18:47:06.457Z,69.80
2023-02-17T18:49:34.762Z,69.60
2023-02-17T18:52:02.472Z,69.40
2023-02-17T18:54:29.973Z,69.90
2023-02-17T18:56:57.564Z,69.60
2023-02-17T18:59:25.208Z,69.40
2023-02-17T19:01:52.783Z,69.60
2023-02-17T19:04:20.268Z,69.90
2023-02-17T19:06:47.811Z,70.50
2023-02-17T19:09:15.338Z,70.30
2023-02-17T19:11:42.831Z,70.50
2023-02-17T19:14:10.355Z,70.90
2023-02-17T19:16:38.083Z,71.40
2023-02-17T19:19:06.253Z,71.10
2023-02-17T19:21:35.338Z,70.90
2023-02-17T19:24:03.917Z,70.60
2023-02-17T19:26:31.621Z,71.10
2023-02-17T19:29:00.033Z,71.40
2023-02-17T19:31:27.579Z,71.10
2023-02-17T19:33:55.440Z,71.30
2023-02-17T19:36:24.032Z,71.40
2023-02-17T19:38:52.479Z,70.80
2023-02-17T19:41:21.142Z,70.50
2023-02-17T19:43:48.687Z,71.30
2023-02-17T19:46:18.380Z,70.70
2023-02-17T19:48:46.152Z,70.80
2023-02-17T19:51:16.653Z,71.20
2023-02-17T19:53:44.872Z,71.50
2023-02-17T19:56:15.418Z,71.10
2023-02-17T19:58:44.284Z,70.90
2023-02-17T20:01:15.041Z,72.30
2023-02-17T20:03:42.595Z,72.90
2023-02-17T20:06:11.352Z,73.00
2023-02-17T20:08:39.272Z,73.00
2023-02-17T20:11:07.947Z,72.60
2023-02-17T20:13:45.195Z,73.20
2023-02-17T20:16:14.466Z,73.30
2023-02-17T20:18:44.787Z,72.10
2023-02-17T20:21:14.154Z,71.80
2023-02-17T20:23:41.644Z,72.10
2023-02-17T20:26:10.835Z,72.20
2023-02-17T20:28:38.362Z,71.70
2023-02-17T20:31:06.556Z,71.90
2023-02-17T20:33:34.115Z,73.00
2023-02-17T20:36:01.792Z,72.60
2023-02-17T20:38:29.397Z,71.80
2023-02-17T20:40:57.650Z,72.10
2023-02-17T20:43:25.194Z,72.60
2023-02-17T20:45:53.502Z,71.70
2023-02-17T20:48:22.004Z,71.50
2023-02-17T20:50:49.916Z,72.10
2023-02-17T20:53:17.541Z,73.30
2023-02-17T20:55:45.010Z,73.10
2023-02-17T20:58:12.494Z,73.70
2023-02-17T21:00:40.072Z,73.30
2023-02-17T21:03:07.635Z,73.30
2023-02-17T21:05:35.400Z,74.10
2023-02-17T21:08:02.910Z,75.00
2023-02-17T21:10:31.571Z,74.80
2023-02-17T21:12:59.112Z,74.60
2023-02-17T21:15:27.498Z,75.00
2023-02-17T21:17:55.014Z,75.40
2023-02-17T21:20:22.597Z,75.20
2023-02-17T21:22:50.835Z,75.60
2023-02-17T21:25:18.391Z,74.50
2023-02-17T21:27:45.865Z,74.80
2023-02-17T21:30:14.230Z,75.50
2023-02-17T21:32:41.856Z,74.30
2023-02-17T21:35:10.525Z,74.30
2023-02-17T21:37:41.920Z,74.30
2023-02-17T21:40:11.303Z,74.00
2023-02-17T21:42:56.829Z,75.10
2023-02-17T21:45:24.719Z,73.30
2023-02-17T21:47:52.212Z,73.40
2023-02-17T21:50:21.514Z,72.90
2023-02-17T21:52:49.100Z,74.60
2023-02-17T21:55:16.704Z,74.50
2023-02-17T21:57:44.253Z,75.00
2023-02-17T22:00:13.142Z,74.40
2023-02-17T22:02:42.035Z,73.40
2023-02-17T22:05:11.076Z,73.90
2023-02-17T22:07:38.560Z,73.90
2023-02-17T22:10:06.686Z,72.90
2023-02-17T22:12:35.788Z,72.90
2023-02-17T22:15:04.970Z,74.10
2023-02-17T22:17:32.726Z,74.60
2023-02-17T22:20:00.610Z,74.60
2023-02-17T22:22:28.198Z,73.40
2023-02-17T22:24:55.792Z,74.30
2023-02-17T22:27:23.640Z,74.60
2023-02-17T22:29:51.179Z,74.70
2023-02-17T22:32:19.228Z,74.70
2023-02-17T22:34:46.734Z,73.60
2023-02-17T22:37:14.265Z,73.20
2023-02-17T22:39:41.707Z,73.30
2023-02-17T22:42:09.174Z,74.90
2023-02-17T22:44:37.844Z,74.90
2023-02-17T22:47:05.367Z,75.50
2023-02-17T22:49:32.872Z,75.30
2023-02-17T22:52:00.707Z,75.90
2023-02-17T22:54:28.304Z,74.30
2023-02-17T22:56:55.803Z,74.50
2023-02-17T22:59:23.347Z,74.30
2023-02-17T23:01:51.015Z,75.10
2023-02-17T23:04:18.762Z,75.60
2023-02-17T23:06:46.492Z,76.00
2023-02-17T23:09:16.759Z,76.30
2023-02-17T23:11:50.458Z,74.50
2023-02-17T23:14:19.797Z,73.80
2023-02-17T23:16:47.924Z,74.40
2023-02-17T23:19:17.310Z,75.20
2023-02-17T23:21:46.580Z,74.90
2023-02-17T23:24:15.797Z,75.70
2023-02-17T23:26:44.283Z,75.00
2023-02-17T23:29:12.817Z,75.30
2023-02-17T23:31:40.401Z,75.10
2023-02-17T23:34:07.953Z,74.60
2023-02-17T23:36:35.444Z,75.30
2023-02-17T23:39:02.925Z,75.30
2023-02-17T23:41:30.594Z,76.10
2023-02-17T23:43:58.097Z,76.20
2023-02-17T23:46:26.502Z,74.50
2023-02-17T23:48:54.271Z,75.30
2023-02-17T23:51:21.801Z,74.10
2023-02-17T23:53:49.756Z,74.00
2023-02-17T23:56:28.416Z,74.20
2023-02-17T23:58:55.877Z,74.30
